sensor_id;sensor_type;location;lat;lon;timestamp;temperature;humidity
20045;DHT22;10183;47.808;9.476;2023-01-30T00:01:00;-2.40;99.90
20045;DHT22;10183;47.808;9.476;2023-01-30T00:03:26;-2.60;99.90
20045;DHT22;10183;47.808;9.476;2023-01-30T00:05:53;-2.50;99.90
20045;DHT22;10183;47.808;9.476;2023-01-30T00:08:19;-2.50;99.90
20045;DHT22;10183;47.808;9.476;2023-01-30T00:10:46;-2.60;99.90
20045;DHT22;10183;47.808;9.476;2023-01-30T00:13:13;-2.70;99.90
20045;DHT22;10183;47.808;9.476;2023-01-30T00:15:40;-2.60;99.90
20045;DHT22;10183;47.808;9.476;2023-01-30T00:18:06;-2.70;99.90
20045;DHT22;10183;47.808;9.476;2023-01-30T00:20:33;-2.60;99.90
20045;DHT22;10183;47.808;9.476;2023-01-30T00:22:59;-2.60;99.90
20045;DHT22;10183;47.808;9.476;2023-01-30T00:25:26;-2.70;99.90
20045;DHT22;10183;47.808;9.476;2023-01-30T00:27:52;-2.70;99.90
20045;DHT22;10183;47.808;9.476;2023-01-30T00:30:18;-2.70;99.90
20045;DHT22;10183;47.808;9.476;2023-01-30T00:32:44;-2.70;99.90
20045;DHT22;10183;47.808;9.476;2023-01-30T00:35:10;-2.80;99.90
20045;DHT22;10183;47.808;9.476;2023-01-30T00:37:37;-2.80;99.90
20045;DHT22;10183;47.808;9.476;2023-01-30T00:40:03;-2.80;99.90
20045;DHT22;10183;47.808;9.476;2023-01-30T00:42:30;-2.60;99.90
20045;DHT22;10183;47.808;9.476;2023-01-30T00:45:14;-2.70;99.90
20045;DHT22;10183;47.808;9.476;2023-01-30T00:47:59;-2.80;99.90
20045;DHT22;10183;47.808;9.476;2023-01-30T00:50:25;-2.90;99.90
20045;DHT22;10183;47.808;9.476;2023-01-30T00:53:11;-2.90;99.90
20045;DHT22;10183;47.808;9.476;2023-01-30T00:55:38;-2.90;99.90
20045;DHT22;10183;47.808;9.476;2023-01-30T00:58:04;-2.90;99.90
20045;DHT22;10183;47.808;9.476;2023-01-30T01:00:31;-2.80;99.90
20045;DHT22;10183;47.808;9.476;2023-01-30T01:02:57;-2.90;99.90
20045;DHT22;10183;47.808;9.476;2023-01-30T01:05:24;-2.90;99.90
20045;DHT22;10183;47.808;9.476;2023-01-30T01:07:50;-2.90;99.90
20045;DHT22;10183;47.808;9.476;2023-01-30T01:10:16;-2.90;99.90
20045;DHT22;10183;47.808;9.476;2023-01-30T01:12:42;-2.80;99.90
20045;DHT22;10183;47.808;9.476;2023-01-30T01:15:10;-3.00;99.90
20045;DHT22;10183;47.808;9.476;2023-01-30T01:17:38;-2.90;99.90
20045;DHT22;10183;47.808;9.476;2023-01-30T01:20:05;-2.90;99.90
20045;DHT22;10183;47.808;9.476;2023-01-30T01:22:32;-3.00;99.90
20045;DHT22;10183;47.808;9.476;2023-01-30T01:24:58;-2.90;99.90
20045;DHT22;10183;47.808;9.476;2023-01-30T01:27:24;-3.00;99.90
20045;DHT22;10183;47.808;9.476;2023-01-30T01:29:50;-2.90;99.90
20045;DHT22;10183;47.808;9.476;2023-01-30T01:32:16;-3.00;99.90
20045;DHT22;10183;47.808;9.476;2023-01-30T01:34:42;-3.10;99.90
20045;DHT22;10183;47.808;9.476;2023-01-30T01:37:08;-3.00;99.90
20045;DHT22;10183;47.808;9.476;2023-01-30T01:39:35;-2.90;99.90
20045;DHT22;10183;47.808;9.476;2023-01-30T01:42:21;-2.90;99.90
20045;DHT22;10183;47.808;9.476;2023-01-30T01:47:38;-2.80;99.90
20045;DHT22;10183;47.808;9.476;2023-01-30T01:50:11;-2.70;99.90
20045;DHT22;10183;47.808;9.476;2023-01-30T01:52:38;-2.80;99.90
20045;DHT22;10183;47.808;9.476;2023-01-30T01:55:05;-2.70;99.90
20045;DHT22;10183;47.808;9.476;2023-01-30T01:57:44;-2.70;99.90
20045;DHT22;10183;47.808;9.476;2023-01-30T02:00:15;-2.70;99.90
20045;DHT22;10183;47.808;9.476;2023-01-30T02:02:50;-2.70;99.90
20045;DHT22;10183;47.808;9.476;2023-01-30T02:05:18;-2.60;99.90
20045;DHT22;10183;47.808;9.476;2023-01-30T02:07:52;-2.60;99.90
20045;DHT22;10183;47.808;9.476;2023-01-30T02:10:24;-2.70;99.90
20045;DHT22;10183;47.808;9.476;2023-01-30T02:12:52;-2.60;99.90
20045;DHT22;10183;47.808;9.476;2023-01-30T02:15:19;-2.60;99.90
20045;DHT22;10183;47.808;9.476;2023-01-30T02:17:45;-2.70;99.90
20045;DHT22;10183;47.808;9.476;2023-01-30T02:23:22;-2.70;99.90
20045;DHT22;10183;47.808;9.476;2023-01-30T02:31:49;-2.70;99.90
20045;DHT22;10183;47.808;9.476;2023-01-30T02:34:29;-2.70;99.90
20045;DHT22;10183;47.808;9.476;2023-01-30T02:37:15;-2.70;99.90
20045;DHT22;10183;47.808;9.476;2023-01-30T02:47:48;-2.60;99.90
20045;DHT22;10183;47.808;9.476;2023-01-30T02:50:33;-2.70;99.90
20045;DHT22;10183;47.808;9.476;2023-01-30T02:53:03;-2.70;99.90
20045;DHT22;10183;47.808;9.476;2023-01-30T02:55:30;-2.70;99.90
20045;DHT22;10183;47.808;9.476;2023-01-30T02:57:56;-2.80;99.90
20045;DHT22;10183;47.808;9.476;2023-01-30T03:06:26;-2.60;99.90
20045;DHT22;10183;47.808;9.476;2023-01-30T03:11:43;-2.80;99.90
20045;DHT22;10183;47.808;9.476;2023-01-30T03:14:20;-2.80;99.90
20045;DHT22;10183;47.808;9.476;2023-01-30T03:16:49;-2.80;99.90
20045;DHT22;10183;47.808;9.476;2023-01-30T03:19:18;-2.80;99.90
20045;DHT22;10183;47.808;9.476;2023-01-30T03:21:45;-2.90;99.90
20045;DHT22;10183;47.808;9.476;2023-01-30T03:24:12;-2.80;99.90
20045;DHT22;10183;47.808;9.476;2023-01-30T03:27:06;-2.80;99.90
20045;DHT22;10183;47.808;9.476;2023-01-30T03:29:33;-2.90;99.90
20045;DHT22;10183;47.808;9.476;2023-01-30T03:31:59;-2.90;99.90
20045;DHT22;10183;47.808;9.476;2023-01-30T03:34:26;-3.00;99.90
20045;DHT22;10183;47.808;9.476;2023-01-30T03:36:52;-2.90;99.90
20045;DHT22;10183;47.808;9.476;2023-01-30T03:39:18;-2.80;99.90
20045;DHT22;10183;47.808;9.476;2023-01-30T03:41:45;-2.90;99.90
20045;DHT22;10183;47.808;9.476;2023-01-30T03:44:11;-2.80;99.90
20045;DHT22;10183;47.808;9.476;2023-01-30T03:46:37;-2.70;99.90
20045;DHT22;10183;47.808;9.476;2023-01-30T03:49:03;-2.80;99.90
20045;DHT22;10183;47.808;9.476;2023-01-30T03:51:29;-2.70;99.90
20045;DHT22;10183;47.808;9.476;2023-01-30T03:53:55;-2.60;99.90
20045;DHT22;10183;47.808;9.476;2023-01-30T03:56:22;-2.60;99.90
20045;DHT22;10183;47.808;9.476;2023-01-30T03:58:48;-2.50;99.90
20045;DHT22;10183;47.808;9.476;2023-01-30T04:01:14;-2.60;99.90
20045;DHT22;10183;47.808;9.476;2023-01-30T04:03:40;-2.50;99.90
20045;DHT22;10183;47.808;9.476;2023-01-30T04:06:06;-2.50;99.90
20045;DHT22;10183;47.808;9.476;2023-01-30T04:08:33;-2.50;99.90
20045;DHT22;10183;47.808;9.476;2023-01-30T04:10:59;-2.30;99.90
20045;DHT22;10183;47.808;9.476;2023-01-30T04:13:25;-2.30;99.90
20045;DHT22;10183;47.808;9.476;2023-01-30T04:15:51;-2.30;99.90
20045;DHT22;10183;47.808;9.476;2023-01-30T04:18:17;-2.40;99.90
20045;DHT22;10183;47.808;9.476;2023-01-30T04:20:44;-2.30;99.90
20045;DHT22;10183;47.808;9.476;2023-01-30T04:23:10;-2.30;99.90
20045;DHT22;10183;47.808;9.476;2023-01-30T04:25:36;-2.20;99.90
20045;DHT22;10183;47.808;9.476;2023-01-30T04:28:03;-2.20;99.90
20045;DHT22;10183;47.808;9.476;2023-01-30T04:30:29;-2.20;99.90
20045;DHT22;10183;47.808;9.476;2023-01-30T04:32:55;-2.20;99.90
20045;DHT22;10183;47.808;9.476;2023-01-30T04:35:21;-2.20;99.90
20045;DHT22;10183;47.808;9.476;2023-01-30T04:37:47;-2.20;99.90
20045;DHT22;10183;47.808;9.476;2023-01-30T04:40:13;-2.20;99.90
20045;DHT22;10183;47.808;9.476;2023-01-30T04:42:40;-2.20;99.90
20045;DHT22;10183;47.808;9.476;2023-01-30T04:45:06;-2.20;99.90
20045;DHT22;10183;47.808;9.476;2023-01-30T04:47:32;-2.10;99.90
20045;DHT22;10183;47.808;9.476;2023-01-30T04:49:58;-2.20;99.90
20045;DHT22;10183;47.808;9.476;2023-01-30T04:52:25;-2.20;99.90
20045;DHT22;10183;47.808;9.476;2023-01-30T04:54:51;-2.20;99.90
20045;DHT22;10183;47.808;9.476;2023-01-30T04:57:17;-2.30;99.90
20045;DHT22;10183;47.808;9.476;2023-01-30T04:59:43;-2.30;99.90
20045;DHT22;10183;47.808;9.476;2023-01-30T05:02:09;-2.40;99.90
20045;DHT22;10183;47.808;9.476;2023-01-30T05:04:35;-2.40;99.90
20045;DHT22;10183;47.808;9.476;2023-01-30T05:07:01;-2.40;99.90
20045;DHT22;10183;47.808;9.476;2023-01-30T05:09:27;-2.40;99.90
20045;DHT22;10183;47.808;9.476;2023-01-30T05:11:53;-2.40;99.90
20045;DHT22;10183;47.808;9.476;2023-01-30T05:14:20;-2.40;99.90
20045;DHT22;10183;47.808;9.476;2023-01-30T05:16:46;-2.40;99.90
20045;DHT22;10183;47.808;9.476;2023-01-30T05:19:12;-2.50;99.90
20045;DHT22;10183;47.808;9.476;2023-01-30T05:21:38;-2.50;99.90
20045;DHT22;10183;47.808;9.476;2023-01-30T05:24:05;-2.50;99.90
20045;DHT22;10183;47.808;9.476;2023-01-30T05:26:31;-2.50;99.90
20045;DHT22;10183;47.808;9.476;2023-01-30T05:28:58;-2.50;99.90
20045;DHT22;10183;47.808;9.476;2023-01-30T05:31:24;-2.50;99.90
20045;DHT22;10183;47.808;9.476;2023-01-30T05:33:51;-2.60;99.90
20045;DHT22;10183;47.808;9.476;2023-01-30T05:36:20;-2.60;99.90
20045;DHT22;10183;47.808;9.476;2023-01-30T05:38:46;-2.70;99.90
20045;DHT22;10183;47.808;9.476;2023-01-30T05:41:14;-2.80;99.90
20045;DHT22;10183;47.808;9.476;2023-01-30T05:43:40;-2.70;99.90
20045;DHT22;10183;47.808;9.476;2023-01-30T05:46:09;-2.70;99.90
20045;DHT22;10183;47.808;9.476;2023-01-30T05:48:36;-2.70;99.90
20045;DHT22;10183;47.808;9.476;2023-01-30T05:51:02;-2.80;99.90
20045;DHT22;10183;47.808;9.476;2023-01-30T05:53:31;-2.70;99.90
20045;DHT22;10183;47.808;9.476;2023-01-30T05:56:02;-2.70;99.90
20045;DHT22;10183;47.808;9.476;2023-01-30T05:58:29;-2.80;99.90
20045;DHT22;10183;47.808;9.476;2023-01-30T06:01:03;-2.80;99.90
20045;DHT22;10183;47.808;9.476;2023-01-30T06:03:29;-2.70;99.90
20045;DHT22;10183;47.808;9.476;2023-01-30T06:05:56;-2.70;99.90
20045;DHT22;10183;47.808;9.476;2023-01-30T06:08:22;-2.80;99.90
20045;DHT22;10183;47.808;9.476;2023-01-30T06:10:49;-2.70;99.90
20045;DHT22;10183;47.808;9.476;2023-01-30T06:13:15;-2.80;99.90
20045;DHT22;10183;47.808;9.476;2023-01-30T06:15:41;-2.80;99.90
20045;DHT22;10183;47.808;9.476;2023-01-30T06:18:07;-2.80;99.90
20045;DHT22;10183;47.808;9.476;2023-01-30T06:20:33;-2.80;99.90
20045;DHT22;10183;47.808;9.476;2023-01-30T06:23:00;-2.80;99.90
20045;DHT22;10183;47.808;9.476;2023-01-30T06:25:26;-2.80;99.90
20045;DHT22;10183;47.808;9.476;2023-01-30T06:27:52;-2.80;99.90
20045;DHT22;10183;47.808;9.476;2023-01-30T06:30:18;-2.80;99.90
20045;DHT22;10183;47.808;9.476;2023-01-30T06:32:48;-2.80;99.90
20045;DHT22;10183;47.808;9.476;2023-01-30T06:35:14;-2.90;99.90
20045;DHT22;10183;47.808;9.476;2023-01-30T06:37:40;-3.00;99.90
20045;DHT22;10183;47.808;9.476;2023-01-30T06:40:07;-2.90;99.90
20045;DHT22;10183;47.808;9.476;2023-01-30T06:42:33;-2.80;99.90
20045;DHT22;10183;47.808;9.476;2023-01-30T06:44:59;-2.90;99.90
20045;DHT22;10183;47.808;9.476;2023-01-30T06:47:25;-2.90;99.90
20045;DHT22;10183;47.808;9.476;2023-01-30T06:49:51;-2.90;99.90
20045;DHT22;10183;47.808;9.476;2023-01-30T06:52:18;-2.90;99.90
20045;DHT22;10183;47.808;9.476;2023-01-30T06:54:44;-2.90;99.90
20045;DHT22;10183;47.808;9.476;2023-01-30T06:57:10;-2.90;99.90
20045;DHT22;10183;47.808;9.476;2023-01-30T06:59:37;-2.90;99.90
20045;DHT22;10183;47.808;9.476;2023-01-30T07:02:03;-3.00;99.90
20045;DHT22;10183;47.808;9.476;2023-01-30T07:04:29;-3.00;99.90
20045;DHT22;10183;47.808;9.476;2023-01-30T07:06:55;-2.90;99.90
20045;DHT22;10183;47.808;9.476;2023-01-30T07:09:22;-2.90;99.90
20045;DHT22;10183;47.808;9.476;2023-01-30T07:11:48;-3.00;99.90
20045;DHT22;10183;47.808;9.476;2023-01-30T07:14:15;-2.90;99.90
20045;DHT22;10183;47.808;9.476;2023-01-30T07:16:41;-2.80;99.90
20045;DHT22;10183;47.808;9.476;2023-01-30T07:19:08;-2.90;99.90
20045;DHT22;10183;47.808;9.476;2023-01-30T07:21:34;-2.90;99.90
20045;DHT22;10183;47.808;9.476;2023-01-30T07:24:00;-2.90;99.90
20045;DHT22;10183;47.808;9.476;2023-01-30T07:26:26;-2.80;99.90
20045;DHT22;10183;47.808;9.476;2023-01-30T07:28:54;-2.80;99.90
20045;DHT22;10183;47.808;9.476;2023-01-30T07:31:20;-2.70;99.90
20045;DHT22;10183;47.808;9.476;2023-01-30T07:33:46;-2.70;99.90
20045;DHT22;10183;47.808;9.476;2023-01-30T07:36:13;-2.80;99.90
20045;DHT22;10183;47.808;9.476;2023-01-30T07:38:39;-2.70;99.90
20045;DHT22;10183;47.808;9.476;2023-01-30T07:41:05;-2.70;99.90
20045;DHT22;10183;47.808;9.476;2023-01-30T07:43:31;-2.80;99.90
20045;DHT22;10183;47.808;9.476;2023-01-30T07:45:59;-2.70;99.90
20045;DHT22;10183;47.808;9.476;2023-01-30T07:48:25;-2.70;99.90
20045;DHT22;10183;47.808;9.476;2023-01-30T07:50:54;-2.80;99.90
20045;DHT22;10183;47.808;9.476;2023-01-30T07:53:24;-2.80;99.90
20045;DHT22;10183;47.808;9.476;2023-01-30T07:55:50;-2.70;99.90
20045;DHT22;10183;47.808;9.476;2023-01-30T07:58:16;-2.80;99.90
20045;DHT22;10183;47.808;9.476;2023-01-30T08:00:43;-2.70;99.90
20045;DHT22;10183;47.808;9.476;2023-01-30T08:03:13;-2.70;99.90
20045;DHT22;10183;47.808;9.476;2023-01-30T08:05:40;-2.70;99.90
20045;DHT22;10183;47.808;9.476;2023-01-30T08:08:06;-2.80;99.90
20045;DHT22;10183;47.808;9.476;2023-01-30T08:10:32;-2.70;99.90
20045;DHT22;10183;47.808;9.476;2023-01-30T08:12:58;-2.60;99.90
20045;DHT22;10183;47.808;9.476;2023-01-30T08:15:24;-2.60;99.90
20045;DHT22;10183;47.808;9.476;2023-01-30T08:17:55;-2.50;99.90
20045;DHT22;10183;47.808;9.476;2023-01-30T08:20:22;-2.50;99.90
20045;DHT22;10183;47.808;9.476;2023-01-30T08:22:48;-2.50;99.90
20045;DHT22;10183;47.808;9.476;2023-01-30T08:25:14;-2.50;99.90
20045;DHT22;10183;47.808;9.476;2023-01-30T08:27:41;-2.40;99.90
20045;DHT22;10183;47.808;9.476;2023-01-30T08:30:08;-2.30;99.90
20045;DHT22;10183;47.808;9.476;2023-01-30T08:32:34;-2.40;99.90
20045;DHT22;10183;47.808;9.476;2023-01-30T08:35:01;-2.40;99.90
20045;DHT22;10183;47.808;9.476;2023-01-30T08:37:27;-2.40;99.90
20045;DHT22;10183;47.808;9.476;2023-01-30T08:39:53;-2.30;99.90
20045;DHT22;10183;47.808;9.476;2023-01-30T08:42:19;-2.30;99.90
20045;DHT22;10183;47.808;9.476;2023-01-30T08:44:45;-2.20;99.90
20045;DHT22;10183;47.808;9.476;2023-01-30T08:47:12;-2.20;99.90
20045;DHT22;10183;47.808;9.476;2023-01-30T08:49:38;-2.20;99.90
20045;DHT22;10183;47.808;9.476;2023-01-30T08:52:04;-2.20;99.90
20045;DHT22;10183;47.808;9.476;2023-01-30T08:54:30;-2.30;99.90
20045;DHT22;10183;47.808;9.476;2023-01-30T08:56:56;-2.30;99.90
20045;DHT22;10183;47.808;9.476;2023-01-30T08:59:22;-2.30;99.90
20045;DHT22;10183;47.808;9.476;2023-01-30T09:01:48;-2.30;99.90
20045;DHT22;10183;47.808;9.476;2023-01-30T09:04:14;-2.30;99.90
20045;DHT22;10183;47.808;9.476;2023-01-30T09:06:40;-2.20;99.90
20045;DHT22;10183;47.808;9.476;2023-01-30T09:09:07;-2.10;99.90
20045;DHT22;10183;47.808;9.476;2023-01-30T09:11:33;-2.10;99.90
20045;DHT22;10183;47.808;9.476;2023-01-30T09:13:59;-2.10;99.90
20045;DHT22;10183;47.808;9.476;2023-01-30T09:16:25;-2.00;99.90
20045;DHT22;10183;47.808;9.476;2023-01-30T09:18:51;-1.90;99.90
20045;DHT22;10183;47.808;9.476;2023-01-30T09:21:17;-1.90;99.90
20045;DHT22;10183;47.808;9.476;2023-01-30T09:23:44;-1.90;99.90
20045;DHT22;10183;47.808;9.476;2023-01-30T09:26:10;-1.80;99.90
20045;DHT22;10183;47.808;9.476;2023-01-30T09:28:36;-1.80;99.90
20045;DHT22;10183;47.808;9.476;2023-01-30T09:31:02;-1.80;99.90
20045;DHT22;10183;47.808;9.476;2023-01-30T09:33:28;-1.70;99.90
20045;DHT22;10183;47.808;9.476;2023-01-30T09:35:55;-1.60;99.90
20045;DHT22;10183;47.808;9.476;2023-01-30T09:38:21;-1.40;99.90
20045;DHT22;10183;47.808;9.476;2023-01-30T09:46:04;-1.40;99.90
20045;DHT22;10183;47.808;9.476;2023-01-30T09:48:42;-1.50;99.90
20045;DHT22;10183;47.808;9.476;2023-01-30T09:54:10;-1.50;99.90
20045;DHT22;10183;47.808;9.476;2023-01-30T09:56:39;-1.60;99.90
20045;DHT22;10183;47.808;9.476;2023-01-30T09:59:05;-1.60;99.90
20045;DHT22;10183;47.808;9.476;2023-01-30T10:04:29;-1.40;99.90
20045;DHT22;10183;47.808;9.476;2023-01-30T10:12:34;-1.30;99.90
20045;DHT22;10183;47.808;9.476;2023-01-30T10:18:15;-1.30;99.90
20045;DHT22;10183;47.808;9.476;2023-01-30T10:26:23;-1.30;99.90
20045;DHT22;10183;47.808;9.476;2023-01-30T10:28:55;-1.30;99.90
20045;DHT22;10183;47.808;9.476;2023-01-30T10:31:27;-1.30;99.90
20045;DHT22;10183;47.808;9.476;2023-01-30T10:34:02;-1.30;99.90
20045;DHT22;10183;47.808;9.476;2023-01-30T10:36:38;-1.10;99.90
20045;DHT22;10183;47.808;9.476;2023-01-30T10:39:27;-1.20;99.90
20045;DHT22;10183;47.808;9.476;2023-01-30T10:42:09;-1.20;99.90
20045;DHT22;10183;47.808;9.476;2023-01-30T10:44:38;-1.10;99.90
20045;DHT22;10183;47.808;9.476;2023-01-30T10:49:50;-1.00;99.90
20045;DHT22;10183;47.808;9.476;2023-01-30T10:52:41;-0.90;99.90
20045;DHT22;10183;47.808;9.476;2023-01-30T10:58:05;-1.00;99.90
20045;DHT22;10183;47.808;9.476;2023-01-30T11:00:48;-0.90;99.90
20045;DHT22;10183;47.808;9.476;2023-01-30T11:05:49;-0.90;99.90
20045;DHT22;10183;47.808;9.476;2023-01-30T11:08:21;-0.80;99.90
20045;DHT22;10183;47.808;9.476;2023-01-30T11:10:48;-0.80;99.90
20045;DHT22;10183;47.808;9.476;2023-01-30T11:13:22;-0.70;99.90
20045;DHT22;10183;47.808;9.476;2023-01-30T11:15:53;-0.30;99.90
20045;DHT22;10183;47.808;9.476;2023-01-30T11:18:21;-0.20;99.90
20045;DHT22;10183;47.808;9.476;2023-01-30T11:21:04;-0.10;99.90
20045;DHT22;10183;47.808;9.476;2023-01-30T11:23:35;0.20;99.90
20045;DHT22;10183;47.808;9.476;2023-01-30T11:26:04;0.40;99.90
20045;DHT22;10183;47.808;9.476;2023-01-30T11:28:35;0.90;99.90
20045;DHT22;10183;47.808;9.476;2023-01-30T11:31:04;0.80;99.90
20045;DHT22;10183;47.808;9.476;2023-01-30T11:33:36;0.70;99.90
20045;DHT22;10183;47.808;9.476;2023-01-30T11:36:21;0.90;99.90
20045;DHT22;10183;47.808;9.476;2023-01-30T11:41:58;1.10;99.90
20045;DHT22;10183;47.808;9.476;2023-01-30T11:44:33;1.60;99.90
20045;DHT22;10183;47.808;9.476;2023-01-30T11:47:08;1.10;99.90
20045;DHT22;10183;47.808;9.476;2023-01-30T11:49:46;0.70;99.90
20045;DHT22;10183;47.808;9.476;2023-01-30T11:52:17;0.70;99.90
20045;DHT22;10183;47.808;9.476;2023-01-30T11:54:45;0.70;99.90
20045;DHT22;10183;47.808;9.476;2023-01-30T11:57:16;0.80;99.90
20045;DHT22;10183;47.808;9.476;2023-01-30T11:59:48;0.70;99.90
20045;DHT22;10183;47.808;9.476;2023-01-30T12:02:34;0.70;99.90
20045;DHT22;10183;47.808;9.476;2023-01-30T12:05:33;0.70;99.90
20045;DHT22;10183;47.808;9.476;2023-01-30T12:08:15;0.50;99.90
20045;DHT22;10183;47.808;9.476;2023-01-30T12:10:51;0.70;99.90
20045;DHT22;10183;47.808;9.476;2023-01-30T12:13:25;0.70;99.90
20045;DHT22;10183;47.808;9.476;2023-01-30T12:21:48;1.00;99.90
20045;DHT22;10183;47.808;9.476;2023-01-30T12:24:27;1.20;99.90
20045;DHT22;10183;47.808;9.476;2023-01-30T12:27:05;1.00;99.90
20045;DHT22;10183;47.808;9.476;2023-01-30T12:32:33;0.80;99.90
20045;DHT22;10183;47.808;9.476;2023-01-30T12:35:01;0.80;99.90
20045;DHT22;10183;47.808;9.476;2023-01-30T12:37:40;0.70;99.90
20045;DHT22;10183;47.808;9.476;2023-01-30T12:40:29;0.80;99.90
20045;DHT22;10183;47.808;9.476;2023-01-30T12:48:54;0.60;99.90
20045;DHT22;10183;47.808;9.476;2023-01-30T12:57:26;0.70;99.90
20045;DHT22;10183;47.808;9.476;2023-01-30T13:02:47;0.60;99.90
20045;DHT22;10183;47.808;9.476;2023-01-30T13:05:40;0.60;99.90
20045;DHT22;10183;47.808;9.476;2023-01-30T13:25:40;0.90;99.90
20045;DHT22;10183;47.808;9.476;2023-01-30T13:28:15;0.90;99.90
20045;DHT22;10183;47.808;9.476;2023-01-30T13:30:43;0.80;99.90
20045;DHT22;10183;47.808;9.476;2023-01-30T13:33:18;0.90;99.90
20045;DHT22;10183;47.808;9.476;2023-01-30T13:38:27;1.00;99.90
20045;DHT22;10183;47.808;9.476;2023-01-30T13:40:56;1.00;99.90
20045;DHT22;10183;47.808;9.476;2023-01-30T13:43:34;1.00;99.90
20045;DHT22;10183;47.808;9.476;2023-01-30T13:46:06;1.00;99.90
20045;DHT22;10183;47.808;9.476;2023-01-30T13:56:23;1.10;99.90
20045;DHT22;10183;47.808;9.476;2023-01-30T13:59:00;1.10;99.90
20045;DHT22;10183;47.808;9.476;2023-01-30T14:10:02;1.20;99.90
20045;DHT22;10183;47.808;9.476;2023-01-30T14:23:19;1.20;99.90
20045;DHT22;10183;47.808;9.476;2023-01-30T14:25:50;1.20;99.90
20045;DHT22;10183;47.808;9.476;2023-01-30T14:35:46;1.30;99.90
20045;DHT22;10183;47.808;9.476;2023-01-30T14:38:17;1.20;99.90
20045;DHT22;10183;47.808;9.476;2023-01-30T14:41:23;1.30;99.90
20045;DHT22;10183;47.808;9.476;2023-01-30T14:43:51;1.30;99.90
20045;DHT22;10183;47.808;9.476;2023-01-30T14:51:43;1.20;99.90
20045;DHT22;10183;47.808;9.476;2023-01-30T15:02:18;0.90;99.90
20045;DHT22;10183;47.808;9.476;2023-01-30T15:05:08;0.90;99.90
20045;DHT22;10183;47.808;9.476;2023-01-30T15:07:55;0.90;99.90
20045;DHT22;10183;47.808;9.476;2023-01-30T15:10:50;0.90;99.90
20045;DHT22;10183;47.808;9.476;2023-01-30T15:19:03;0.90;99.90
20045;DHT22;10183;47.808;9.476;2023-01-30T15:21:46;0.90;99.90
20045;DHT22;10183;47.808;9.476;2023-01-30T15:32:29;0.90;99.90
20045;DHT22;10183;47.808;9.476;2023-01-30T15:34:58;0.90;99.90
20045;DHT22;10183;47.808;9.476;2023-01-30T15:37:51;0.90;99.90
20045;DHT22;10183;47.808;9.476;2023-01-30T15:40:23;0.90;99.90
20045;DHT22;10183;47.808;9.476;2023-01-30T15:43:09;0.90;99.90
20045;DHT22;10183;47.808;9.476;2023-01-30T15:45:47;0.90;99.90
20045;DHT22;10183;47.808;9.476;2023-01-30T15:51:21;0.90;99.90
20045;DHT22;10183;47.808;9.476;2023-01-30T15:53:48;1.00;99.90
20045;DHT22;10183;47.808;9.476;2023-01-30T15:56:25;0.90;99.90
20045;DHT22;10183;47.808;9.476;2023-01-30T15:58:52;0.90;99.90
20045;DHT22;10183;47.808;9.476;2023-01-30T16:01:20;0.90;99.90
20045;DHT22;10183;47.808;9.476;2023-01-30T16:03:48;0.80;99.90
20045;DHT22;10183;47.808;9.476;2023-01-30T16:06:32;0.70;99.90
20045;DHT22;10183;47.808;9.476;2023-01-30T16:09:18;0.80;99.90
20045;DHT22;10183;47.808;9.476;2023-01-30T16:11:44;0.70;99.90
20045;DHT22;10183;47.808;9.476;2023-01-30T16:14:13;0.70;99.90
20045;DHT22;10183;47.808;9.476;2023-01-30T16:19:29;0.80;99.90
20045;DHT22;10183;47.808;9.476;2023-01-30T16:22:00;0.80;99.90
20045;DHT22;10183;47.808;9.476;2023-01-30T16:24:31;0.80;99.90
20045;DHT22;10183;47.808;9.476;2023-01-30T16:27:01;0.80;99.90
20045;DHT22;10183;47.808;9.476;2023-01-30T16:29:30;0.90;99.90
20045;DHT22;10183;47.808;9.476;2023-01-30T16:31:57;0.90;99.90
20045;DHT22;10183;47.808;9.476;2023-01-30T16:34:36;1.00;99.90
20045;DHT22;10183;47.808;9.476;2023-01-30T16:40:19;1.00;99.90
20045;DHT22;10183;47.808;9.476;2023-01-30T16:43:13;1.00;99.90
20045;DHT22;10183;47.808;9.476;2023-01-30T16:53:23;1.10;99.90
20045;DHT22;10183;47.808;9.476;2023-01-30T16:56:03;1.10;99.90
20045;DHT22;10183;47.808;9.476;2023-01-30T16:58:31;1.10;99.90
20045;DHT22;10183;47.808;9.476;2023-01-30T17:01:00;1.10;99.90
20045;DHT22;10183;47.808;9.476;2023-01-30T17:03:32;1.20;99.90
20045;DHT22;10183;47.808;9.476;2023-01-30T17:06:02;1.20;99.90
20045;DHT22;10183;47.808;9.476;2023-01-30T17:08:46;1.10;99.90
20045;DHT22;10183;47.808;9.476;2023-01-30T17:11:40;1.20;99.90
20045;DHT22;10183;47.808;9.476;2023-01-30T17:17:06;1.10;99.90
20045;DHT22;10183;47.808;9.476;2023-01-30T17:19:35;1.10;99.90
20045;DHT22;10183;47.808;9.476;2023-01-30T17:22:04;1.10;99.90
20045;DHT22;10183;47.808;9.476;2023-01-30T17:24:31;1.20;99.90
20045;DHT22;10183;47.808;9.476;2023-01-30T17:26:59;1.10;99.90
20045;DHT22;10183;47.808;9.476;2023-01-30T17:29:29;1.20;99.90
20045;DHT22;10183;47.808;9.476;2023-01-30T17:31:57;1.20;99.90
20045;DHT22;10183;47.808;9.476;2023-01-30T17:34:24;1.20;99.90
20045;DHT22;10183;47.808;9.476;2023-01-30T17:36:52;1.20;99.90
20045;DHT22;10183;47.808;9.476;2023-01-30T17:39:21;1.20;99.90
20045;DHT22;10183;47.808;9.476;2023-01-30T17:41:48;1.10;99.90
20045;DHT22;10183;47.808;9.476;2023-01-30T17:44:15;1.10;99.90
20045;DHT22;10183;47.808;9.476;2023-01-30T17:46:47;1.20;99.90
20045;DHT22;10183;47.808;9.476;2023-01-30T17:49:22;1.10;99.90
20045;DHT22;10183;47.808;9.476;2023-01-30T17:51:50;1.00;99.90
20045;DHT22;10183;47.808;9.476;2023-01-30T17:54:17;1.00;99.90
20045;DHT22;10183;47.808;9.476;2023-01-30T17:56:45;1.00;99.90
20045;DHT22;10183;47.808;9.476;2023-01-30T17:59:17;0.90;99.90
20045;DHT22;10183;47.808;9.476;2023-01-30T18:01:49;0.90;99.90
20045;DHT22;10183;47.808;9.476;2023-01-30T18:04:17;0.90;99.90
20045;DHT22;10183;47.808;9.476;2023-01-30T18:06:49;0.90;99.90
20045;DHT22;10183;47.808;9.476;2023-01-30T18:09:19;0.90;99.90
20045;DHT22;10183;47.808;9.476;2023-01-30T18:11:47;0.90;99.90
20045;DHT22;10183;47.808;9.476;2023-01-30T18:14:13;1.00;99.90
20045;DHT22;10183;47.808;9.476;2023-01-30T18:16:40;0.90;99.90
20045;DHT22;10183;47.808;9.476;2023-01-30T18:19:10;0.90;99.90
20045;DHT22;10183;47.808;9.476;2023-01-30T18:21:37;0.90;99.90
20045;DHT22;10183;47.808;9.476;2023-01-30T18:24:06;0.90;99.90
20045;DHT22;10183;47.808;9.476;2023-01-30T18:26:32;0.90;99.90
20045;DHT22;10183;47.808;9.476;2023-01-30T18:28:58;0.90;99.90
20045;DHT22;10183;47.808;9.476;2023-01-30T18:31:28;0.90;99.90
20045;DHT22;10183;47.808;9.476;2023-01-30T18:33:54;0.90;99.90
20045;DHT22;10183;47.808;9.476;2023-01-30T18:36:21;0.90;99.90
20045;DHT22;10183;47.808;9.476;2023-01-30T18:38:48;0.80;99.90
20045;DHT22;10183;47.808;9.476;2023-01-30T18:41:20;0.80;99.90
20045;DHT22;10183;47.808;9.476;2023-01-30T18:43:55;0.80;99.90
20045;DHT22;10183;47.808;9.476;2023-01-30T18:46:22;0.90;99.90
20045;DHT22;10183;47.808;9.476;2023-01-30T18:48:49;0.90;99.90
20045;DHT22;10183;47.808;9.476;2023-01-30T18:51:20;0.80;99.90
20045;DHT22;10183;47.808;9.476;2023-01-30T18:53:49;0.80;99.90
20045;DHT22;10183;47.808;9.476;2023-01-30T18:56:27;0.80;99.90
20045;DHT22;10183;47.808;9.476;2023-01-30T18:58:55;0.80;99.90
20045;DHT22;10183;47.808;9.476;2023-01-30T19:01:24;0.80;99.90